Time;durP1;ratioP1;P1;durP2;ratioP2;P2;SDS_P1;SDS_P2;PMS_P1;PMS_P2;Temp;Humidity;BMP_temperature;BMP_pressure;BME280_temperature;BME280_humidity;BME280_pressure;Samples;Min_cycle;Max_cycle;Signal;HPM_P1;HPM_P2
2022/11/03 00:01:10;;;;;;;;;4.33;4.00;;;;;15.32;62.33;101061.81;5030487;28;46446;-64
2022/11/03 00:03:36;;;;;;;;;5.67;5.00;;;;;15.27;62.84;101065.34;5044169;28;45380;-65
2022/11/03 00:06:05;;;;;;;;;5.00;5.00;;;;;15.17;62.63;101052.66;5033177;28;45573;-66
2022/11/03 00:08:41;;;;;;;;;3.00;3.00;;;;;15.26;62.95;101079.72;5034000;28;46068;-66
2022/11/03 00:11:17;;;;;;;;;7.00;6.00;;;;;15.27;62.94;101072.53;5033017;28;45480;-66
2022/11/03 00:13:43;;;;;;;;;8.00;4.00;;;;;15.24;63.08;101067.09;5034420;28;45320;-67
2022/11/03 00:16:11;;;;;;;;;7.00;4.67;;;;;15.20;63.28;101062.59;5034113;28;45514;-67
2022/11/03 00:18:37;;;;;;;;;4.33;4.00;;;;;15.17;62.98;101058.06;5038291;28;45535;-66
2022/11/03 00:21:05;;;;;;;;;5.33;3.00;;;;;15.12;63.69;101054.41;5034187;28;45489;-65
2022/11/03 00:23:33;;;;;;;;;5.00;5.00;;;;;15.06;63.79;101059.69;5033958;28;45560;-65
2022/11/03 00:26:05;;;;;;;;;4.67;4.33;;;;;14.99;63.41;101044.38;5034431;28;45519;-66
2022/11/03 00:28:32;;;;;;;;;4.67;4.67;;;;;15.04;63.88;101048.03;5036003;28;46549;-66
2022/11/03 00:31:00;;;;;;;;;3.67;3.67;;;;;14.92;64.05;101029.94;5040891;28;45600;-66
2022/11/03 00:33:29;;;;;;;;;5.33;4.00;;;;;15.03;63.91;101049.81;5035869;28;45303;-66
2022/11/03 00:36:00;;;;;;;;;6.00;3.00;;;;;15.03;64.04;101040.81;5042735;28;45490;-66
2022/11/03 00:38:26;;;;;;;;;6.00;5.00;;;;;15.02;63.80;101030.97;5036342;28;45562;-67
2022/11/03 00:40:59;;;;;;;;;5.33;5.00;;;;;15.05;63.88;101036.38;5033766;28;45423;-66
2022/11/03 00:43:26;;;;;;;;;6.33;5.00;;;;;15.08;63.94;101037.31;5028472;28;45704;-66
2022/11/03 00:45:52;;;;;;;;;3.33;3.00;;;;;15.08;63.73;101023.88;5047717;28;45672;-65
2022/11/03 00:48:31;;;;;;;;;4.00;3.33;;;;;15.02;63.57;101020.19;5042747;28;45564;-66
2022/11/03 00:51:19;;;;;;;;;6.00;4.00;;;;;15.09;63.80;101022.06;5039950;28;45497;-68
2022/11/03 00:53:54;;;;;;;;;3.67;3.67;;;;;15.08;63.84;101013.09;5046182;28;45495;-67
2022/11/03 00:56:22;;;;;;;;;6.00;5.00;;;;;15.08;63.92;101020.28;5039039;28;45355;-64
2022/11/03 00:58:49;;;;;;;;;4.00;4.00;;;;;15.10;63.96;101011.31;5037015;28;46155;-65
2022/11/03 01:01:25;;;;;;;;;4.67;4.00;;;;;15.13;63.75;101015.84;5037069;28;45540;-66
2022/11/03 01:06:49;;;;;;;;;4.00;4.00;;;;;15.14;64.11;100998.81;5035933;28;45407;-65
2022/11/03 01:09:19;;;;;;;;;4.67;3.33;;;;;15.17;63.53;100995.25;5038192;28;45548;-66
2022/11/03 01:11:50;;;;;;;;;3.00;3.00;;;;;15.19;63.46;100986.28;5036874;28;45557;-65
2022/11/03 01:14:16;;;;;;;;;5.33;2.67;;;;;15.22;63.58;100982.75;5036966;28;45370;-65
2022/11/03 01:16:42;;;;;;;;;10.33;6.00;;;;;15.21;63.44;100971.09;5036714;28;45477;-65
2022/11/03 01:19:07;;;;;;;;;7.67;4.67;;;;;15.23;63.23;100974.69;5036717;28;46189;-65
2022/11/03 01:21:33;;;;;;;;;5.00;4.00;;;;;15.20;63.50;100966.59;5032203;28;45416;-65
2022/11/03 01:24:00;;;;;;;;;4.33;4.00;;;;;15.18;63.08;100959.38;5037973;28;45489;-66
2022/11/03 01:26:26;;;;;;;;;6.00;6.00;;;;;15.21;63.58;100960.31;5037241;28;45581;-67
2022/11/03 01:28:51;;;;;;;;;4.00;4.00;;;;;15.17;63.44;100958.47;5032161;28;46326;-67
2022/11/03 01:31:19;;;;;;;;;4.33;3.00;;;;;15.17;63.44;100955.78;5036588;28;47336;-65
2022/11/03 01:33:46;;;;;;;;;4.00;4.00;;;;;15.14;63.67;100950.34;5040681;28;45378;-67
2022/11/03 01:36:13;;;;;;;;;6.00;4.00;;;;;14.98;63.80;100929.53;5046141;28;45382;-64
2022/11/03 01:38:39;;;;;;;;;3.67;3.67;;;;;15.11;63.67;100939.56;5036488;28;45687;-66
2022/11/03 01:41:06;;;;;;;;;7.67;4.00;;;;;15.15;63.75;100936.03;5038920;28;45434;-64
2022/11/03 01:43:32;;;;;;;;;6.00;3.67;;;;;15.07;63.77;100910.81;5039132;28;45341;-67
2022/11/03 01:46:10;;;;;;;;;3.00;3.00;;;;;15.19;63.65;100926.19;5036165;28;45471;-65
2022/11/03 01:48:41;;;;;;;;;3.00;3.00;;;;;15.22;63.47;100921.75;5036246;28;46449;-66
2022/11/03 01:51:09;;;;;;;;;3.00;3.00;;;;;15.19;63.14;100915.44;5036370;28;45571;-64
2022/11/03 01:53:40;;;;;;;;;4.00;3.00;;;;;15.19;63.27;100913.63;5037196;28;45374;-64
2022/11/03 01:56:06;;;;;;;;;4.33;3.00;;;;;15.14;63.39;100912.69;5053251;28;45402;-66
2022/11/03 01:58:36;;;;;;;;;7.00;3.00;;;;;15.13;63.34;100896.50;5047759;28;45686;-67
2022/11/03 02:01:01;;;;;;;;;5.33;3.67;;;;;15.15;63.75;100901.03;5035117;28;45458;-66
2022/11/03 02:03:34;;;;;;;;;5.00;3.33;;;;;15.11;63.61;100893.81;5036147;28;45380;-65
2022/11/03 02:06:01;;;;;;;;;5.00;4.00;;;;;15.09;63.97;100879.44;5036509;28;45543;-65
2022/11/03 02:08:34;;;;;;;;;6.33;4.00;;;;;15.07;63.69;100882.13;5042191;28;46055;-65
2022/11/03 02:12:05;;;;;;;;;4.00;2.67;;;;;15.09;63.79;100872.25;5048423;28;45521;-64
2022/11/03 02:13:45;;;;;;;;;4.00;4.00;;;;;15.13;63.67;100884.00;5035970;28;45368;-65
2022/11/03 02:16:10;;;;;;;;;4.33;4.33;;;;;15.08;63.67;100872.28;5039058;28;45558;-66
2022/11/03 02:18:36;;;;;;;;;4.00;3.67;;;;;15.09;63.60;100869.56;5036083;28;49038;-66
2022/11/03 02:21:25;;;;;;;;;3.33;3.00;;;;;15.05;63.56;100865.06;5036099;28;45531;-66
2022/11/03 02:23:56;;;;;;;;;5.00;3.33;;;;;15.05;64.08;100862.38;5046118;28;45449;-66
2022/11/03 02:26:22;;;;;;;;;7.00;3.67;;;;;15.04;63.83;100855.19;5036341;28;45470;-65
2022/11/03 02:28:48;;;;;;;;;4.67;4.00;;;;;14.99;64.14;100848.84;5035671;28;46248;-64
2022/11/03 02:31:25;;;;;;;;;7.00;4.00;;;;;15.00;63.99;100842.59;5035529;28;45363;-67
2022/11/03 02:34:03;;;;;;;;;6.33;4.00;;;;;14.99;64.10;100838.09;5035316;28;45476;-63
2022/11/03 02:36:36;;;;;;;;;4.33;4.00;;;;;14.64;64.21;100768.72;5035923;28;45648;-65
2022/11/03 02:39:10;;;;;;;;;12.67;5.00;;;;;15.04;63.80;100830.06;5035379;28;45509;-65
2022/11/03 02:41:38;;;;;;;;;3.33;3.33;;;;;15.00;63.91;100822.88;5036993;28;45460;-67
2022/11/03 02:44:10;;;;;;;;;3.67;3.00;;;;;14.96;63.90;100819.22;5036712;28;45611;-64
2022/11/03 02:46:38;;;;;;;;;4.00;3.33;;;;;15.02;63.93;100824.66;5055470;28;45477;-65
2022/11/03 02:49:03;;;;;;;;;5.00;3.00;;;;;14.95;64.01;100806.69;5036097;28;45459;-66
2022/11/03 02:51:29;;;;;;;;;8.33;3.67;;;;;14.97;64.12;100807.59;5035146;28;45256;-65
2022/11/03 02:54:06;;;;;;;;;7.67;5.33;;;;;15.02;64.03;100800.44;5035376;28;45359;-65
2022/11/03 02:56:39;;;;;;;;;4.33;4.33;;;;;14.99;64.11;100794.16;5035586;28;45535;-65
2022/11/03 02:59:13;;;;;;;;;5.33;3.00;;;;;14.96;64.09;100784.25;5035088;28;45411;-65
2022/11/03 03:01:47;;;;;;;;;6.00;3.67;;;;;14.89;64.28;100771.63;5035138;28;45336;-65
2022/11/03 03:04:27;;;;;;;;;3.33;3.33;;;;;14.95;64.25;100782.47;5034927;28;45288;-64
2022/11/03 03:06:58;;;;;;;;;9.67;6.00;;;;;14.92;64.23;100772.56;5037973;28;45615;-66
2022/11/03 03:09:32;;;;;;;;;3.67;3.67;;;;;14.91;64.30;100765.41;5029198;28;47270;-66
2022/11/03 03:12:00;;;;;;;;;5.67;5.00;;;;;14.92;64.28;100752.84;5048044;28;45468;-66
2022/11/03 03:14:33;;;;;;;;;5.00;3.67;;;;;14.87;63.77;100730.38;5041855;28;45532;-66
2022/11/03 03:17:04;;;;;;;;;5.00;4.00;;;;;14.90;63.99;100730.41;5037632;28;45546;-63
2022/11/03 03:19:50;;;;;;;;;3.67;2.33;;;;;14.87;64.16;100728.59;5040482;28;46379;-66
2022/11/03 03:22:34;;;;;;;;;5.67;4.67;;;;;14.83;64.26;100720.47;5022693;28;45704;-65
2022/11/03 03:25:12;;;;;;;;;5.00;4.00;;;;;14.75;64.10;100704.28;5034803;28;45476;-66
2022/11/03 03:27:43;;;;;;;;;4.00;4.00;;;;;14.84;64.17;100716.91;5039432;28;45581;-65
2022/11/03 03:30:10;;;;;;;;;3.00;3.00;;;;;14.81;64.08;100704.31;5034996;28;47010;-65
2022/11/03 03:32:39;;;;;;;;;5.67;5.00;;;;;14.80;64.57;100704.31;5034989;28;45292;-65
2022/11/03 03:35:08;;;;;;;;;5.67;5.00;;;;;14.73;64.27;100695.28;5035324;28;45542;-64
2022/11/03 03:37:41;;;;;;;;;7.00;5.33;;;;;14.68;64.35;100686.28;5022078;28;45627;-65
2022/11/03 03:40:11;;;;;;;;;6.33;5.00;;;;;14.63;64.63;100677.28;5034692;28;45492;-66
2022/11/03 03:42:39;;;;;;;;;5.00;4.33;;;;;14.56;64.60;100646.72;5016748;28;45597;-66
2022/11/03 03:45:08;;;;;;;;;7.00;5.00;;;;;14.57;64.86;100668.25;5043490;28;45625;-67
2022/11/03 03:47:34;;;;;;;;;9.00;5.33;;;;;14.59;64.66;100675.44;5040843;28;45549;-64
2022/11/03 03:50:00;;;;;;;;;6.00;4.67;;;;;14.62;64.29;100675.47;5046246;28;45605;-66
2022/11/03 03:52:28;;;;;;;;;6.67;5.00;;;;;14.57;64.85;100673.63;5034561;28;45650;-65
2022/11/03 03:54:54;;;;;;;;;4.67;3.33;;;;;14.50;64.63;100669.09;5039722;28;45472;-68
2022/11/03 03:57:23;;;;;;;;;5.33;3.00;;;;;14.61;64.56;100682.63;5034595;28;45434;-66
2022/11/03 03:59:49;;;;;;;;;4.67;4.33;;;;;14.54;64.50;100672.69;5034046;28;45471;-66
2022/11/03 04:02:15;;;;;;;;;5.67;3.00;;;;;14.62;64.37;100689.84;5034602;28;45994;-66
2022/11/03 04:04:41;;;;;;;;;3.67;3.67;;;;;14.63;64.51;100688.94;5034617;28;45519;-66
2022/11/03 04:09:51;;;;;;;;;6.33;4.00;;;;;14.68;64.28;100675.53;5035421;28;46101;-64
2022/11/03 04:23:15;;;;;;;;;6.33;5.00;;;;;14.65;64.43;100664.75;5028507;28;45529;-65
2022/11/03 04:25:46;;;;;;;;;4.33;4.00;;;;;14.72;64.08;100656.75;5038871;28;45419;-63
2022/11/03 04:28:13;;;;;;;;;3.00;3.00;;;;;14.75;63.84;100650.50;5033509;28;45644;-65
2022/11/03 04:30:39;;;;;;;;;6.00;5.00;;;;;14.69;64.16;100639.69;5040225;28;46963;-65
2022/11/03 04:33:13;;;;;;;;;3.67;3.00;;;;;14.71;63.96;100632.53;5040379;28;45279;-65
2022/11/03 04:35:38;;;;;;;;;6.33;2.33;;;;;14.67;64.06;100633.41;5040603;28;45472;-64
2022/11/03 04:38:18;;;;;;;;;5.67;5.00;;;;;14.62;64.10;100614.53;5040931;28;45497;-65
2022/11/03 04:40:46;;;;;;;;;9.33;4.00;;;;;14.73;64.23;100620.91;5040362;28;46310;-66
2022/11/03 04:43:14;;;;;;;;;3.00;3.00;;;;;14.74;64.27;100625.38;5040105;28;45590;-64
2022/11/03 04:45:42;;;;;;;;;5.33;4.00;;;;;14.69;63.44;100613.69;5048212;28;45394;-64
2022/11/03 04:48:13;;;;;;;;;7.33;5.67;;;;;14.72;63.96;100608.34;5040673;28;45279;-65
2022/11/03 04:50:39;;;;;;;;;9.67;6.00;;;;;14.76;63.81;100611.94;5053215;28;46451;-64
2022/11/03 04:53:11;;;;;;;;;4.67;2.00;;;;;14.82;63.64;100608.41;5040569;28;45417;-67
2022/11/03 04:55:39;;;;;;;;;5.67;4.67;;;;;14.80;63.59;100600.34;5042178;28;45480;-66
2022/11/03 04:58:22;;;;;;;;;3.00;3.00;;;;;14.79;63.62;100598.53;5039698;28;45625;-66
2022/11/03 05:00:53;;;;;;;;;1.67;1.67;;;;;14.73;63.21;100590.41;5043075;28;45608;-65
2022/11/03 05:03:46;;;;;;;;;5.67;5.67;;;;;14.69;63.98;100586.78;5040098;28;45579;-65
2022/11/03 05:06:18;;;;;;;;;9.00;5.00;;;;;14.66;63.84;100575.13;5036355;28;45820;-64
2022/11/03 05:08:47;;;;;;;;;4.33;4.33;;;;;14.70;63.32;100574.25;5040477;28;45342;-65
2022/11/03 05:11:29;;;;;;;;;7.00;4.00;;;;;14.67;63.79;100566.19;5039635;28;46846;-65
2022/11/03 05:13:59;;;;;;;;;5.33;4.67;;;;;14.66;63.88;100559.88;5047018;28;45591;-68
2022/11/03 05:16:24;;;;;;;;;3.00;3.00;;;;;14.62;63.89;100559.84;5045244;28;45456;-64
2022/11/03 05:18:50;;;;;;;;;4.67;4.67;;;;;14.50;64.25;100553.50;5040174;28;45448;-64
2022/11/03 05:21:20;;;;;;;;;4.67;4.67;;;;;14.57;64.02;100554.44;5040018;28;45283;-65
2022/11/03 05:23:49;;;;;;;;;8.00;7.00;;;;;14.59;63.86;100549.06;5039724;28;45516;-66
2022/11/03 05:26:34;;;;;;;;;6.00;4.00;;;;;14.49;64.14;100516.72;5040125;28;45438;-65
2022/11/03 05:29:02;;;;;;;;;7.00;5.67;;;;;14.56;64.13;100525.75;5050339;28;45584;-65
2022/11/03 05:31:30;;;;;;;;;10.00;8.00;;;;;14.61;64.19;100517.75;5039032;28;45592;-66
2022/11/03 05:34:01;;;;;;;;;5.33;4.33;;;;;14.52;64.50;100508.69;5039803;28;45501;-64
2022/11/03 05:36:29;;;;;;;;;7.00;6.00;;;;;14.55;64.31;100514.09;5037286;28;45722;-65
2022/11/03 05:38:58;;;;;;;;;4.67;3.33;;;;;14.55;64.43;100513.16;5036581;28;45378;-65
2022/11/03 05:41:26;;;;;;;;;6.00;4.67;;;;;14.54;64.16;100511.41;5041658;28;46196;-64
2022/11/03 05:44:07;;;;;;;;;5.33;3.33;;;;;14.45;64.06;100487.13;5053079;28;45045;-65
2022/11/03 05:46:34;;;;;;;;;4.67;4.00;;;;;14.51;64.32;100481.78;5063741;28;45203;-64
2022/11/03 05:49:01;;;;;;;;;5.00;4.00;;;;;14.49;64.08;100468.34;5059888;28;44931;-65
2022/11/03 05:51:33;;;;;;;;;6.67;6.00;;;;;14.43;64.54;100456.66;5046891;28;45554;-65
2022/11/03 05:54:01;;;;;;;;;11.33;5.00;;;;;14.44;64.67;100453.09;5043230;28;45350;-65
2022/11/03 05:56:27;;;;;;;;;10.00;5.00;;;;;14.42;64.65;100450.41;5037052;28;45843;-66
2022/11/03 05:58:58;;;;;;;;;11.00;5.33;;;;;14.39;64.68;100447.69;5044919;28;45605;-65
2022/11/03 06:01:31;;;;;;;;;5.00;5.00;;;;;14.44;64.85;100461.16;5038327;28;45580;-64
2022/11/03 06:04:00;;;;;;;;;5.00;4.67;;;;;14.43;64.89;100454.88;5038983;28;45468;-64
2022/11/03 06:06:31;;;;;;;;;5.67;4.33;;;;;14.43;64.84;100448.59;5036166;28;45430;-66
2022/11/03 06:08:57;;;;;;;;;6.33;5.00;;;;;14.43;64.79;100445.91;5036379;28;45437;-64
2022/11/03 06:11:32;;;;;;;;;8.00;5.00;;;;;14.40;64.87;100448.56;5035589;28;45524;-66
2022/11/03 06:13:58;;;;;;;;;6.67;6.00;;;;;14.38;65.01;100444.06;5035870;28;45367;-66
2022/11/03 06:16:38;;;;;;;;;8.33;6.67;;;;;14.47;65.04;100434.28;5035798;28;45357;-65
2022/11/03 06:19:17;;;;;;;;;6.33;5.67;;;;;14.41;64.92;100436.94;5036480;28;45604;-65
2022/11/03 06:21:44;;;;;;;;;9.75;8.25;;;;;14.42;65.42;100444.09;5054983;28;45027;-63
2022/11/03 06:24:12;;;;;;;;;10.33;8.67;;;;;14.40;65.14;100433.34;5052311;28;45096;-64
2022/11/03 06:26:39;;;;;;;;;5.33;4.00;;;;;14.37;65.09;100423.50;5050765;28;45335;-65
2022/11/03 06:29:04;;;;;;;;;7.00;6.33;;;;;14.40;65.28;100411.84;5051312;28;45019;-65
2022/11/03 06:31:32;;;;;;;;;5.33;4.00;;;;;14.38;64.89;100397.50;5046937;28;45415;-65
2022/11/03 06:33:58;;;;;;;;;11.00;7.67;;;;;14.36;65.08;100400.19;5035726;28;45299;-66
2022/11/03 06:36:26;;;;;;;;;5.67;5.67;;;;;14.35;65.30;100393.03;5035574;28;45668;-66
2022/11/03 06:39:07;;;;;;;;;9.00;6.00;;;;;14.35;65.32;100402.84;5022988;28;45436;-64
2022/11/03 06:41:35;;;;;;;;;6.33;4.33;;;;;14.38;65.75;100402.88;5035369;28;46544;-66
2022/11/03 06:44:14;;;;;;;;;3.67;3.33;;;;;14.39;65.36;100383.19;5035886;28;45481;-63
2022/11/03 06:46:40;;;;;;;;;8.33;6.33;;;;;14.47;64.82;100372.44;5036895;28;45520;-66
2022/11/03 06:49:26;;;;;;;;;9.00;7.00;;;;;14.40;65.01;100368.84;5040137;28;45575;-67
2022/11/03 06:51:51;;;;;;;;;6.00;6.00;;;;;14.43;64.59;100373.34;5041710;28;45692;-68
2022/11/03 06:54:17;;;;;;;;;7.33;6.33;;;;;14.39;65.34;100377.81;5048182;28;45645;-63
2022/11/03 06:56:42;;;;;;;;;7.00;5.33;;;;;14.36;65.06;100375.09;5035462;28;45696;-64
2022/11/03 06:59:09;;;;;;;;;12.00;4.67;;;;;14.40;65.03;100378.69;5035791;28;45562;-66
2022/11/03 07:01:34;;;;;;;;;9.00;7.00;;;;;14.31;64.75;100356.25;5034011;28;46338;-65
2022/11/03 07:04:15;;;;;;;;;8.33;5.00;;;;;14.42;64.55;100353.63;5034004;28;45322;-67
2022/11/03 07:06:42;;;;;;;;;4.00;4.00;;;;;14.36;64.57;100341.06;5030346;28;45543;-66
2022/11/03 07:09:15;;;;;;;;;6.33;6.00;;;;;14.41;64.48;100327.63;5035247;28;45438;-65
2022/11/03 07:11:50;;;;;;;;;10.75;7.50;;;;;14.40;64.58;100330.31;5034861;28;46385;-66
2022/11/03 07:14:19;;;;;;;;;10.00;7.33;;;;;14.39;64.43;100329.44;5034915;28;45477;-66
2022/11/03 07:16:48;;;;;;;;;4.00;4.00;;;;;14.37;64.62;100336.59;5034624;28;45397;-66
2022/11/03 07:19:28;;;;;;;;;5.00;4.33;;;;;14.35;64.57;100315.09;5034661;28;45648;-65
2022/11/03 07:21:56;;;;;;;;;5.67;5.67;;;;;14.36;64.31;100327.63;5034520;28;45481;-66
2022/11/03 07:24:32;;;;;;;;;8.33;6.00;;;;;14.33;64.30;100318.66;5034904;28;45339;-65
2022/11/03 07:27:09;;;;;;;;;8.33;6.00;;;;;14.36;64.07;100321.34;5034798;28;45542;-66
2022/11/03 07:29:34;;;;;;;;;6.00;4.67;;;;;14.34;64.37;100307.91;5041329;28;45594;-66
2022/11/03 07:32:00;;;;;;;;;7.67;5.00;;;;;14.30;64.34;100299.81;5034514;28;46295;-65
2022/11/03 07:34:32;;;;;;;;;7.00;5.00;;;;;14.31;64.10;100289.09;5034632;28;45694;-65
2022/11/03 07:36:57;;;;;;;;;11.00;7.33;;;;;14.29;64.54;100287.31;5034133;28;45525;-64
2022/11/03 07:39:32;;;;;;;;;5.00;4.33;;;;;14.36;64.14;100294.47;5034703;28;45430;-64
2022/11/03 07:41:57;;;;;;;;;6.67;4.00;;;;;14.36;64.03;100289.09;5034690;28;46335;-66
2022/11/03 07:44:23;;;;;;;;;10.67;8.00;;;;;14.37;63.82;100288.22;5038161;28;45681;-63
2022/11/03 07:46:49;;;;;;;;;12.50;10.75;;;;;14.42;63.97;100280.16;5047066;28;45522;-65
2022/11/03 07:49:26;;;;;;;;;10.00;5.00;;;;;14.44;63.77;100273.91;5034864;28;45463;-65
2022/11/03 07:51:54;;;;;;;;;10.00;8.25;;;;;14.41;63.40;100256.88;5041316;28;45371;-63
2022/11/03 07:54:27;;;;;;;;;10.00;7.00;;;;;14.22;63.68;100218.28;5035681;28;45619;-66
2022/11/03 07:56:57;;;;;;;;;13.00;6.67;;;;;14.50;63.10;100270.31;5040907;28;45351;-63
2022/11/03 07:59:43;;;;;;;;;6.67;4.33;;;;;14.46;62.92;100266.72;5037735;28;45756;-64
2022/11/03 08:02:37;;;;;;;;;11.00;7.67;;;;;14.51;63.20;100258.69;5036553;28;45741;-66
2022/11/03 08:05:03;;;;;;;;;5.67;5.67;;;;;14.51;62.36;100254.19;5035669;28;45486;-66
2022/11/03 08:07:30;;;;;;;;;8.00;5.00;;;;;14.52;63.07;100255.13;5040049;28;45746;-64
2022/11/03 08:09:56;;;;;;;;;6.33;5.00;;;;;14.56;62.62;100241.66;5039200;28;45439;-64
2022/11/03 08:12:21;;;;;;;;;4.33;3.00;;;;;14.64;63.02;100240.81;5045748;28;46114;-70
2022/11/03 08:14:47;;;;;;;;;12.00;6.33;;;;;14.63;62.16;100250.66;5033450;28;45736;-66
2022/11/03 08:17:13;;;;;;;;;10.33;7.67;;;;;14.70;62.28;100240.81;5045538;28;45772;-67
2022/11/03 08:19:39;;;;;;;;;9.67;6.00;;;;;14.74;62.28;100243.50;5046782;28;45744;-67
2022/11/03 08:22:04;;;;;;;;;7.33;4.00;;;;;14.77;61.52;100236.38;5043269;28;46123;-68
2022/11/03 08:24:30;;;;;;;;;8.33;5.00;;;;;14.58;61.49;100195.97;5044927;28;45626;-66
2022/11/03 08:26:55;;;;;;;;;5.33;5.33;;;;;14.84;61.95;100230.97;5033889;28;45282;-69
2022/11/03 08:29:20;;;;;;;;;8.00;5.00;;;;;14.85;61.07;100227.41;5033923;28;45469;-69
2022/11/03 08:31:46;;;;;;;;;7.00;5.00;;;;;14.91;60.85;100216.66;5047937;28;46110;-67
2022/11/03 08:34:11;;;;;;;;;6.00;5.00;;;;;14.87;60.93;100205.88;5060344;28;45167;-66
2022/11/03 08:36:37;;;;;;;;;9.67;4.33;;;;;14.96;60.44;100211.25;5042057;28;45577;-67
2022/11/03 08:39:03;;;;;;;;;8.33;6.33;;;;;15.04;60.76;100222.91;5047388;28;45524;-68
2022/11/03 08:41:28;;;;;;;;;4.33;4.33;;;;;15.07;60.33;100214.84;5059444;28;45906;-67
2022/11/03 08:43:54;;;;;;;;;6.33;4.33;;;;;14.77;60.39;100153.91;5048918;28;45361;-66
2022/11/03 08:46:19;;;;;;;;;9.67;7.67;;;;;15.01;60.26;100189.72;5022931;28;46980;-71
2022/11/03 08:48:45;;;;;;;;;5.67;5.67;;;;;15.15;60.46;100201.38;5039908;28;45681;-69
2022/11/03 08:51:12;;;;;;;;;10.67;9.67;;;;;15.18;60.15;100187.94;5036988;28;46129;-69
2022/11/03 08:53:39;;;;;;;;;7.33;5.67;;;;;15.18;59.83;100174.47;5036774;28;45682;-69
2022/11/03 08:56:05;;;;;;;;;6.33;5.33;;;;;15.22;60.06;100168.16;5045693;28;45410;-69
2022/11/03 08:58:30;;;;;;;;;9.33;5.00;;;;;15.17;59.61;100145.75;5040998;28;45547;-69
2022/11/03 09:00:56;;;;;;;;;6.67;5.00;;;;;15.30;59.04;100160.09;5042308;28;45546;-68
2022/11/03 09:03:22;;;;;;;;;9.00;7.00;;;;;15.27;59.62;100150.22;5045322;28;45470;-72
2022/11/03 09:05:47;;;;;;;;;10.67;7.00;;;;;15.25;59.53;100141.25;5042324;28;45493;-68
2022/11/03 09:08:12;;;;;;;;;6.00;6.00;;;;;15.26;59.35;100145.75;5042254;28;45778;-67
2022/11/03 09:10:38;;;;;;;;;4.33;4.00;;;;;15.29;59.06;100150.22;5027976;28;48533;-69
2022/11/03 09:13:04;;;;;;;;;10.00;7.00;;;;;15.27;59.29;100131.38;5042201;28;45757;-70
2022/11/03 09:15:30;;;;;;;;;7.67;6.00;;;;;15.12;59.54;100109.91;5048047;28;45598;-68
2022/11/03 09:17:55;;;;;;;;;6.67;6.00;;;;;15.32;59.15;100130.47;5041154;28;46124;-64
2022/11/03 09:20:21;;;;;;;;;10.00;7.67;;;;;15.31;59.21;100132.28;5034379;28;47605;-64
2022/11/03 09:22:46;;;;;;;;;7.00;4.67;;;;;15.30;58.93;100114.34;5053424;28;45551;-65
2022/11/03 09:25:11;;;;;;;;;8.67;5.00;;;;;15.22;58.88;100084.75;5051296;28;45465;-65
2022/11/03 09:27:37;;;;;;;;;8.67;7.00;;;;;15.34;59.11;100102.66;5051065;28;45644;-65
2022/11/03 09:30:03;;;;;;;;;7.33;4.00;;;;;15.30;59.08;100106.25;5041846;28;62165;-64
2022/11/03 09:32:28;;;;;;;;;6.67;5.00;;;;;15.27;58.89;100093.69;5056533;28;45439;-64
2022/11/03 09:34:54;;;;;;;;;5.67;3.00;;;;;15.33;58.73;100102.66;5045710;28;45490;-65
2022/11/03 09:37:20;;;;;;;;;7.67;6.33;;;;;15.33;58.76;100092.81;5046651;28;45402;-64
2022/11/03 09:39:46;;;;;;;;;9.33;6.67;;;;;15.39;58.45;100086.50;5040929;28;45477;-64
2022/11/03 09:42:11;;;;;;;;;7.00;5.67;;;;;15.36;58.49;100078.41;5051980;28;45400;-65
2022/11/03 09:44:37;;;;;;;;;9.33;6.33;;;;;15.45;58.75;100071.19;5042410;28;45549;-65
2022/11/03 09:47:04;;;;;;;;;7.67;6.00;;;;;15.51;58.38;100074.75;5048514;28;46233;-65
2022/11/03 09:49:31;;;;;;;;;8.67;6.67;;;;;15.56;58.37;100067.56;5042619;28;45554;-64
2022/11/03 09:51:57;;;;;;;;;10.67;8.00;;;;;15.62;58.43;100063.06;5049379;28;45781;-64
2022/11/03 09:54:23;;;;;;;;;5.33;5.33;;;;;15.63;57.83;100056.75;5041336;28;45853;-64
2022/11/03 09:56:48;;;;;;;;;7.33;4.67;;;;;15.71;57.27;100059.41;5052328;28;45542;-64
2022/11/03 09:59:18;;;;;;;;;5.67;5.00;;;;;15.73;57.10;100056.72;5021655;28;47031;-65
2022/11/03 10:01:47;;;;;;;;;5.67;4.67;;;;;15.73;56.89;100045.94;5049606;28;45462;-64
2022/11/03 10:04:13;;;;;;;;;6.67;6.67;;;;;15.75;57.30;100041.44;5047529;28;46786;-66
2022/11/03 10:06:39;;;;;;;;;7.67;6.33;;;;;15.81;57.38;100031.56;5042256;28;45605;-65
2022/11/03 10:09:07;;;;;;;;;6.00;6.00;;;;;15.82;56.46;100054.91;5046542;28;46261;-65
2022/11/03 10:11:33;;;;;;;;;4.67;4.67;;;;;15.84;56.70;100033.34;5038824;28;45516;-65
2022/11/03 10:13:59;;;;;;;;;5.33;5.00;;;;;15.81;56.84;100014.50;5048669;28;46141;-65
2022/11/03 10:16:25;;;;;;;;;6.33;5.67;;;;;15.90;55.85;100032.41;5033367;28;45716;-67
2022/11/03 10:18:51;;;;;;;;;12.67;9.67;;;;;15.86;56.36;100015.38;5045742;28;45481;-66
2022/11/03 10:21:34;;;;;;;;;14.00;9.67;;;;;15.87;56.29;100006.34;5040962;28;45542;-67
2022/11/03 10:24:00;;;;;;;;;5.67;5.67;;;;;16.00;55.94;100017.94;5061997;28;45357;-67
2022/11/03 10:26:25;;;;;;;;;6.33;4.67;;;;;15.98;56.14;99998.22;5055054;28;45138;-67
2022/11/03 10:29:03;;;;;;;;;5.67;5.67;;;;;16.04;55.98;99990.09;5062493;28;46099;-65
2022/11/03 10:31:40;;;;;;;;;4.33;3.67;;;;;16.08;55.73;99997.22;5058777;28;45259;-66
2022/11/03 10:34:25;;;;;;;;;7.67;6.67;;;;;16.12;55.56;99995.38;5059651;28;45091;-66
2022/11/03 10:37:11;;;;;;;;;7.33;5.33;;;;;16.11;55.20;99988.22;5060744;28;45559;-65
2022/11/03 10:39:36;;;;;;;;;4.67;4.00;;;;;16.18;55.25;99988.16;5063563;28;46008;-64
2022/11/03 10:42:02;;;;;;;;;4.67;4.67;;;;;16.13;55.14;99972.94;5060315;28;45176;-66
2022/11/03 10:44:29;;;;;;;;;7.33;4.67;;;;;16.27;55.34;99973.72;5059568;28;45441;-67
2022/11/03 10:46:59;;;;;;;;;5.67;4.67;;;;;16.33;55.18;99992.53;5058985;28;45227;-67
2022/11/03 10:49:35;;;;;;;;;8.00;5.67;;;;;16.31;54.86;99990.75;5053407;28;46416;-66
2022/11/03 10:52:15;;;;;;;;;5.67;5.33;;;;;16.30;54.65;99981.78;5062968;28;45009;-67
2022/11/03 10:54:40;;;;;;;;;5.00;5.00;;;;;16.34;55.27;99983.50;5070111;28;45136;-65
2022/11/03 10:57:05;;;;;;;;;5.33;4.67;;;;;16.33;54.80;99984.44;5045029;28;45421;-67
2022/11/03 10:59:35;;;;;;;;;8.67;7.67;;;;;16.27;55.13;99970.09;5057710;28;45432;-65
2022/11/03 11:02:02;;;;;;;;;4.67;4.67;;;;;16.23;55.57;99961.16;5053266;28;45147;-67
2022/11/03 11:04:28;;;;;;;;;4.00;2.67;;;;;16.26;55.26;99965.63;5048211;28;45464;-67
2022/11/03 11:06:53;;;;;;;;;8.00;5.33;;;;;16.28;55.39;99964.69;5054865;28;45160;-68
2022/11/03 11:09:25;;;;;;;;;6.33;5.00;;;;;16.31;55.76;99955.69;5055841;28;45615;-65
2022/11/03 11:12:20;;;;;;;;;11.00;8.33;;;;;16.25;55.41;99932.41;5051732;28;45281;-67
2022/11/03 11:14:56;;;;;;;;;8.67;8.33;;;;;16.44;55.28;99951.97;5049432;28;45045;-66
2022/11/03 11:17:36;;;;;;;;;8.33;7.33;;;;;16.45;54.92;99958.25;5050859;28;45220;-68
2022/11/03 11:20:17;;;;;;;;;5.67;5.67;;;;;16.46;54.89;99946.56;5051793;28;45286;-67
2022/11/03 11:22:42;;;;;;;;;3.00;3.00;;;;;16.44;54.97;99943.00;5051688;28;44930;-67
2022/11/03 11:25:08;;;;;;;;;3.33;3.00;;;;;16.44;55.03;99927.72;5051755;28;45592;-66
2022/11/03 11:27:39;;;;;;;;;9.33;8.00;;;;;16.47;55.29;99921.41;5055872;28;45419;-67
2022/11/03 11:30:26;;;;;;;;;6.00;4.33;;;;;16.43;55.71;99922.31;5057688;28;45484;-66
2022/11/03 11:33:20;;;;;;;;;10.33;7.67;;;;;16.40;55.99;99936.75;5051777;28;45128;-66
2022/11/03 11:35:45;;;;;;;;;4.00;4.00;;;;;16.37;55.93;99937.66;5048512;28;45103;-67
2022/11/03 11:38:48;;;;;;;;;13.33;10.33;;;;;16.34;57.40;99943.09;5058942;28;45214;-68
2022/11/03 11:41:13;;;;;;;;;5.00;5.00;;;;;16.33;59.28;99932.31;5069087;28;45249;-68
2022/11/03 11:43:39;;;;;;;;;8.33;8.33;;;;;16.30;60.36;99927.88;5066779;28;45077;-67
2022/11/03 11:46:23;;;;;;;;;12.33;11.67;;;;;16.28;61.45;99920.69;5069564;28;45175;-66
2022/11/03 11:48:55;;;;;;;;;39.50;32.00;;;;;16.26;61.61;99909.91;5047155;28;45151;-67
2022/11/03 11:51:21;;;;;;;;;10.00;9.33;;;;;16.31;61.71;99918.84;5058209;28;45970;-67
2022/11/03 11:53:50;;;;;;;;;12.33;8.00;;;;;16.24;61.67;99894.69;5070521;28;45080;-68